Kalamazoo, MI (49001)

4:43 AM EDT on July 31, 2016 (GMT -0400)
Lawndale Ave | | Change Station

Elev 801 ft 42.28 °N, 85.48 °W | Updated 2 seconds ago

Overcast
Overcast
68.2 °F
Feels Like 68.2 °F
N
0.2
Wind Variable Wind from ESE
Gusts 2.5 mph

Today
High -- | Low -- °F
--% Chance of Precip.
Yesterday
High -- | Low -- °F
Precip. -- in
Pressure 30.00 in
Visibility 10.0 miles
Clouds Overcast 1000 ft
Dew Point 66 °F
Humidity 93%
Rainfall 0.00 in
Snow Depth Not available.
6:34 AM 9:01 PM
Waning Crescent, 8% visible
SPECI KAZO 310823Z AUTO 05003KT 10SM OVC010 20/17 A3000 RMK AO2 CIG 007V013 T02000172
Pressure 30.00 in
Visibility 10.0 miles
Clouds Overcast 1000 ft
Dew Point 66 °F
Humidity 93%
Rainfall 0.00 in
Snow Depth Not available.
6:34 AM 9:01 PM
Waning Crescent, 8% visible
SPECI KAZO 310823Z AUTO 05003KT 10SM OVC010 20/17 A3000 RMK AO2 CIG 007V013 T02000172

10-Day Weather Forecast

Almanac

Astronomy

Jul. 31, 2016 Rise Set
Actual Time
Civil Twilight
Nautical Twilight
Astronomical Twilight
Moon
Length of Visible Light
Length of Day
Tomorrow will be .
, % of the Moon is Illuminated

Today's Extremes

State Highs State Lows

Community

WunderPhotos

Upload Photos

1,928,768 photos uploaded!

WunderBlog® & News

Nearby

Air Quality

  Air Quality AQ Index Pollutant
Not available.

Snow Depth

Station Depth Elevation

Earthquake Activity

City Distance Mag. Time & Date
Minimum magnitude displayed is 2.5.

Coastal Water Temperatures

Place Temperature

Stations

Nearby Weather Stations

Station Location Temp. Windchill Dew Point Humidity Wind Precip. Elev Updated Type
                   

Watches & Warnings

There are currently no watches in effect.